Time;durP1;ratioP1;P1;durP2;ratioP2;P2;SDS_P1;SDS_P2;PMS_P1;PMS_P2;Temp;Humidity;BMP_temperature;BMP_pressure;BME280_temperature;BME280_humidity;BME280_pressure;Samples;Min_cycle;Max_cycle;Signal;HPM_P1;HPM_P2
2022/01/04 00:00:21;;;;;;;;;;;;;;;25.12;65.34;96853.34;617683;229;62899;-68
2022/01/04 00:02:49;;;;;;;;;;;;;;;25.12;64.35;96850.66;617716;227;67527;-69
2022/01/04 00:05:16;;;;;;;;;;;;;;;25.10;63.87;96855.53;617681;229;66740;-68
2022/01/04 00:07:44;;;;;;;;;;;;;;;25.10;64.60;96855.53;617712;229;65114;-68
2022/01/04 00:10:11;;;;;;;;;;;;;;;25.09;63.89;96864.71;617693;229;66694;-68
2022/01/04 00:15:24;;;;;;;;;;;;;;;25.09;65.84;96875.47;617694;229;62842;-68
2022/01/04 00:17:53;;;;;;;;;;;;;;;25.09;66.11;96875.47;617749;229;64282;-68
2022/01/04 00:20:20;;;;;;;;;;;;;;;25.07;64.84;96878.44;617705;229;66860;-68
2022/01/04 00:22:48;;;;;;;;;;;;;;;25.06;65.64;96879.55;617703;229;64869;-68
2022/01/04 00:25:16;;;;;;;;;;;;;;;25.06;65.57;96886.83;617677;229;66838;-68
2022/01/04 00:27:44;;;;;;;;;;;;;;;25.06;65.48;96878.77;617722;229;64725;-68
2022/01/04 00:30:12;;;;;;;;;;;;;;;25.06;66.10;96882.23;617752;229;62900;-68
2022/01/04 00:32:39;;;;;;;;;;;;;;;25.05;65.60;96885.24;617691;229;66902;-68
2022/01/04 00:35:07;;;;;;;;;;;;;;;25.05;65.20;96890.63;617718;229;66833;-68
2022/01/04 00:37:34;;;;;;;;;;;;;;;25.04;66.91;96887.11;617679;229;65094;-68
2022/01/04 00:40:02;;;;;;;;;;;;;;;25.02;65.20;96892.81;617701;229;66963;-69
2022/01/04 00:42:29;;;;;;;;;;;;;;;25.02;65.78;96892.02;617737;229;66376;-69
2022/01/04 00:44:57;;;;;;;;;;;;;;;25.01;65.62;96904.64;617687;229;65192;-69
2022/01/04 00:47:38;;;;;;;;;;;;;;;25.02;65.57;96902.77;617677;229;66772;-69
2022/01/04 00:49:54;;;;;;;;;;;;;;;25.00;65.50;96911.12;617332;227;67155;-69
2022/01/04 00:52:22;;;;;;;;;;;;;;;25.00;66.22;96904.95;617672;229;64866;-69
2022/01/04 00:54:49;;;;;;;;;;;;;;;25.00;65.72;96904.95;617759;229;64529;-69
2022/01/04 00:57:17;;;;;;;;;;;;;;;25.00;65.53;96902.27;617710;229;64258;-69
2022/01/04 00:59:44;;;;;;;;;;;;;;;24.99;65.63;96898.78;617675;229;62770;-69
2022/01/04 01:02:12;;;;;;;;;;;;;;;24.99;67.02;96906.03;617672;229;64335;-69
2022/01/04 01:04:41;;;;;;;;;;;;;;;24.98;67.39;96897.17;617737;229;66606;-69
2022/01/04 01:07:08;;;;;;;;;;;;;;;24.96;66.65;96899.39;617745;229;65024;-69
2022/01/04 01:09:45;;;;;;;;;;;;;;;24.95;65.32;96887.02;617765;229;66358;-69
2022/01/04 01:12:05;;;;;;;;;;;;;;;24.95;64.97;96894.30;617558;228;66398;-69
2022/01/04 01:14:33;;;;;;;;;;;;;;;24.95;64.79;96891.61;617699;229;64863;-69
2022/01/04 01:17:02;;;;;;;;;;;;;;;24.95;66.74;96895.09;617711;229;66801;-69
2022/01/04 01:19:29;;;;;;;;;;;;;;;24.93;67.29;96889.21;617729;229;64178;-69
2022/01/04 01:21:59;;;;;;;;;;;;;;;24.92;66.67;96876.08;617753;229;65220;-69
2022/01/04 01:24:26;;;;;;;;;;;;;;;24.91;65.31;96880.67;617682;229;66478;-69
2022/01/04 01:26:54;;;;;;;;;;;;;;;24.91;67.12;96864.54;617720;229;66281;-69
2022/01/04 01:29:21;;;;;;;;;;;;;;;24.92;66.02;96868.81;617692;229;65113;-69
2022/01/04 01:31:49;;;;;;;;;;;;;;;24.90;65.92;96870.20;617728;229;64615;-69
2022/01/04 01:34:18;;;;;;;;;;;;;;;24.91;66.94;96861.03;617800;228;46692;-69
2022/01/04 01:36:46;;;;;;;;;;;;;;;24.88;65.65;96851.70;617669;229;65031;-69
2022/01/04 01:39:13;;;;;;;;;;;;;;;24.89;67.28;96855.19;617661;229;66976;-69
2022/01/04 01:41:40;;;;;;;;;;;;;;;24.86;64.88;96853.89;617695;229;66831;-69
2022/01/04 01:44:08;;;;;;;;;;;;;;;24.87;64.34;96860.05;617696;229;65102;-68
2022/01/04 01:46:35;;;;;;;;;;;;;;;24.87;66.09;96860.05;617634;228;66760;-68
2022/01/04 01:49:04;;;;;;;;;;;;;;;24.87;65.07;96858.16;617761;229;66946;-68
2022/01/04 01:51:32;;;;;;;;;;;;;;;24.87;65.51;96855.47;617627;229;62658;-68
2022/01/04 01:54:00;;;;;;;;;;;;;;;24.86;64.77;96867.33;617704;229;64549;-69
2022/01/04 01:56:29;;;;;;;;;;;;;;;24.86;62.99;96864.64;617769;229;64424;-68
2022/01/04 01:58:57;;;;;;;;;;;;;;;24.86;63.07;96861.95;617731;229;65058;-69
2022/01/04 02:01:24;;;;;;;;;;;;;;;24.85;63.40;96849.59;617779;229;65411;-69
2022/01/04 02:03:52;;;;;;;;;;;;;;;24.86;62.69;96850.41;617713;229;65016;-70
2022/01/04 02:06:21;;;;;;;;;;;;;;;24.85;64.47;96854.97;617695;229;63836;-69
2022/01/04 02:08:50;;;;;;;;;;;;;;;24.86;63.21;96850.41;617800;228;47681;-69
2022/01/04 02:11:20;;;;;;;;;;;;;;;24.86;64.69;96835.08;617733;229;66771;-69
2022/01/04 02:13:47;;;;;;;;;;;;;;;24.83;66.21;96838.37;617738;228;65098;-69
2022/01/04 02:16:16;;;;;;;;;;;;;;;24.82;62.86;96847.51;617735;229;66771;-69
2022/01/04 02:18:44;;;;;;;;;;;;;;;24.83;62.52;96843.74;617663;229;64883;-69
2022/01/04 02:21:11;;;;;;;;;;;;;;;24.83;62.44;96838.37;617736;229;62939;-70
2022/01/04 02:23:39;;;;;;;;;;;;;;;24.81;62.20;96840.55;617694;229;66764;-69
2022/01/04 02:26:06;;;;;;;;;;;;;;;24.81;62.26;96852.09;617709;229;66856;-69
2022/01/04 02:28:34;;;;;;;;;;;;;;;24.80;62.07;96841.66;617689;229;64917;-69
2022/01/04 02:31:02;;;;;;;;;;;;;;;24.81;61.83;96846.72;617703;229;65192;-69
2022/01/04 02:33:29;;;;;;;;;;;;;;;24.80;61.59;96847.82;617668;229;64798;-69
2022/01/04 02:35:57;;;;;;;;;;;;;;;24.78;63.03;96841.94;617710;229;62947;-70
2022/01/04 02:38:24;;;;;;;;;;;;;;;24.79;62.06;96837.36;617676;229;64840;-69
2022/01/04 02:40:52;;;;;;;;;;;;;;;24.79;61.67;96846.21;617729;229;67114;-69
2022/01/04 02:43:19;;;;;;;;;;;;;;;24.79;61.71;96840.05;617703;229;64954;-69
2022/01/04 02:45:47;;;;;;;;;;;;;;;24.79;61.91;96846.21;617681;229;67037;-69
2022/01/04 02:48:15;;;;;;;;;;;;;;;24.79;62.31;96850.80;617697;229;67021;-69
2022/01/04 02:50:43;;;;;;;;;;;;;;;24.77;61.66;96844.92;617839;229;65136;-69
2022/01/04 02:53:10;;;;;;;;;;;;;;;24.76;61.77;96846.81;618820;229;67124;-69
2022/01/04 02:55:38;;;;;;;;;;;;;;;24.76;61.81;96846.81;618805;229;67073;-69
2022/01/04 02:58:05;;;;;;;;;;;;;;;24.76;61.54;96838.75;618814;229;64867;-69
2022/01/04 03:00:33;;;;;;;;;;;;;;;24.76;61.93;96835.27;618787;229;64843;-69
2022/01/04 03:03:00;;;;;;;;;;;;;;;24.75;61.78;96831.80;618804;229;66913;-69
2022/01/04 03:05:29;;;;;;;;;;;;;;;24.74;61.70;96832.88;618831;229;65865;-68
2022/01/04 03:07:56;;;;;;;;;;;;;;;24.75;61.92;96847.13;618789;229;67085;-69
2022/01/04 03:10:24;;;;;;;;;;;;;;;24.74;62.87;96840.94;618827;229;66687;-69
2022/01/04 03:12:51;;;;;;;;;;;;;;;24.72;61.58;96845.05;618758;229;65032;-69
2022/01/04 03:15:18;;;;;;;;;;;;;;;24.72;62.89;96834.30;618812;229;67074;-69
2022/01/04 03:17:46;;;;;;;;;;;;;;;24.71;61.89;96832.69;618781;229;67220;-69
2022/01/04 03:20:13;;;;;;;;;;;;;;;24.70;63.24;96837.27;618840;229;64870;-68
2022/01/04 03:22:41;;;;;;;;;;;;;;;24.70;61.61;96842.64;618820;229;67090;-69
2022/01/04 03:25:09;;;;;;;;;;;;;;;24.70;62.38;96842.64;618780;229;66920;-68
2022/01/04 03:27:37;;;;;;;;;;;;;;;24.69;62.01;96840.24;618746;229;65005;-68
2022/01/04 03:30:05;;;;;;;;;;;;;;;24.69;61.74;96843.75;618813;229;64853;-69
2022/01/04 03:32:33;;;;;;;;;;;;;;;24.68;62.05;96835.97;618858;229;67244;-69
2022/01/04 03:35:00;;;;;;;;;;;;;;;24.66;61.81;96830.88;618849;229;62733;-68
2022/01/04 03:37:28;;;;;;;;;;;;;;;24.66;63.24;96832.78;618789;229;64695;-69
2022/01/04 03:39:55;;;;;;;;;;;;;;;24.65;62.88;96826.62;618785;229;64981;-69
2022/01/04 03:42:23;;;;;;;;;;;;;;;24.64;61.90;96826.94;618788;229;62906;-69
2022/01/04 03:44:50;;;;;;;;;;;;;;;24.64;62.40;96826.94;618819;229;65196;-69
2022/01/04 03:47:18;;;;;;;;;;;;;;;24.63;63.38;96823.42;618813;229;64879;-69
2022/01/04 03:49:46;;;;;;;;;;;;;;;24.63;62.25;96825.33;618758;229;63716;-69
2022/01/04 03:52:13;;;;;;;;;;;;;;;24.62;64.05;96827.22;617912;229;67038;-69
2022/01/04 03:54:41;;;;;;;;;;;;;;;24.61;62.85;96825.64;617644;229;64890;-69
2022/01/04 03:57:08;;;;;;;;;;;;;;;24.59;62.66;96827.82;617740;229;63008;-69
2022/01/04 03:59:36;;;;;;;;;;;;;;;24.59;62.23;96823.23;617712;229;64894;-69
2022/01/04 04:02:03;;;;;;;;;;;;;;;24.59;62.87;96827.82;617664;229;64656;-69
2022/01/04 04:04:31;;;;;;;;;;;;;;;24.57;62.72;96836.16;617694;229;63093;-69
2022/01/04 04:06:58;;;;;;;;;;;;;;;24.56;63.94;96834.59;617643;229;64865;-69
2022/01/04 04:09:26;;;;;;;;;;;;;;;24.59;64.14;96835.88;617741;229;64950;-69
2022/01/04 04:11:53;;;;;;;;;;;;;;;24.55;64.74;96833.00;617732;229;65115;-69
2022/01/04 04:14:21;;;;;;;;;;;;;;;24.55;64.75;96835.69;617682;229;67238;-69
2022/01/04 04:16:48;;;;;;;;;;;;;;;24.54;63.08;96839.45;617676;229;66915;-69
2022/01/04 04:19:16;;;;;;;;;;;;;;;24.54;63.54;96839.45;617694;229;65431;-69
2022/01/04 04:21:43;;;;;;;;;;;;;;;24.52;65.57;96841.63;617645;229;68101;-69
2022/01/04 04:24:11;;;;;;;;;;;;;;;24.52;67.34;96860.44;617757;229;66674;-69
2022/01/04 04:26:38;;;;;;;;;;;;;;;24.51;66.21;96866.13;617686;229;64918;-69
2022/01/04 04:29:06;;;;;;;;;;;;;;;24.51;65.50;96866.91;617642;229;64905;-70
2022/01/04 04:31:35;;;;;;;;;;;;;;;24.49;65.33;96869.09;617705;228;45532;-69
2022/01/04 04:34:02;;;;;;;;;;;;;;;24.49;65.85;96876.36;617644;229;64935;-69
2022/01/04 04:36:31;;;;;;;;;;;;;;;24.47;65.59;96884.73;617715;229;67086;-69
2022/01/04 04:39:00;;;;;;;;;;;;;;;24.46;66.44;96877.75;617662;229;65877;-69
2022/01/04 04:41:29;;;;;;;;;;;;;;;24.45;66.56;96868.11;617679;228;42417;-68
2022/01/04 04:43:57;;;;;;;;;;;;;;;24.44;66.70;96855.75;617680;229;67094;-68
2022/01/04 04:46:24;;;;;;;;;;;;;;;24.45;66.86;96851.20;617661;229;67058;-68
2022/01/04 04:48:51;;;;;;;;;;;;;;;24.45;67.38;96857.36;617723;229;65046;-68
2022/01/04 04:51:19;;;;;;;;;;;;;;;24.44;67.21;96850.38;617594;229;66941;-69
2022/01/04 04:53:46;;;;;;;;;;;;;;;24.43;66.30;96842.61;617605;229;67135;-68
2022/01/04 04:56:14;;;;;;;;;;;;;;;24.45;68.95;96852.00;617661;229;65090;-68
2022/01/04 04:58:41;;;;;;;;;;;;;;;24.42;66.74;96846.37;617722;229;67437;-68
2022/01/04 05:01:09;;;;;;;;;;;;;;;24.41;66.53;96860.91;617639;229;67042;-68
2022/01/04 05:03:36;;;;;;;;;;;;;;;24.41;67.22;96860.91;617676;229;64921;-69
2022/01/04 05:06:04;;;;;;;;;;;;;;;24.42;67.98;96862.48;617665;229;67355;-68
2022/01/04 05:08:31;;;;;;;;;;;;;;;24.40;68.96;96870.86;617677;229;66947;-70
2022/01/04 05:10:59;;;;;;;;;;;;;;;24.39;67.17;96871.96;617749;229;64922;-69
2022/01/04 05:13:26;;;;;;;;;;;;;;;24.38;65.56;96873.83;617692;229;67025;-69
2022/01/04 05:15:54;;;;;;;;;;;;;;;24.38;66.29;96883.78;617678;229;66842;-69
2022/01/04 05:18:21;;;;;;;;;;;;;;;24.38;67.99;96879.20;617706;229;65002;-69
2022/01/04 05:20:49;;;;;;;;;;;;;;;24.38;67.35;96884.56;617648;229;66859;-69
2022/01/04 05:23:16;;;;;;;;;;;;;;;24.36;66.98;96878.72;617739;229;66914;-69
2022/01/04 05:25:44;;;;;;;;;;;;;;;24.36;67.59;96889.46;617689;229;65041;-69
2022/01/04 05:28:12;;;;;;;;;;;;;;;24.34;67.78;96883.58;617660;229;66569;-70
2022/01/04 05:30:41;;;;;;;;;;;;;;;24.35;67.14;96870.94;617729;229;64674;-70
2022/01/04 05:33:09;;;;;;;;;;;;;;;24.34;67.24;96869.36;617736;229;62915;-69
2022/01/04 05:35:36;;;;;;;;;;;;;;;24.35;67.39;96884.37;617733;229;64695;-70
2022/01/04 05:38:04;;;;;;;;;;;;;;;24.34;67.25;96883.58;617732;229;64810;-69
2022/01/04 05:40:31;;;;;;;;;;;;;;;24.34;66.53;96883.58;617710;229;62914;-70
2022/01/04 05:42:59;;;;;;;;;;;;;;;24.34;68.62;96885.48;617683;229;64831;-69
2022/01/04 05:45:28;;;;;;;;;;;;;;;24.33;67.27;96876.59;617668;229;65237;-69
2022/01/04 05:47:56;;;;;;;;;;;;;;;24.34;68.87;96878.20;617679;229;65155;-69
2022/01/04 05:50:24;;;;;;;;;;;;;;;24.33;65.67;96883.86;617723;229;64896;-69
2022/01/04 05:52:51;;;;;;;;;;;;;;;24.32;68.00;96875.02;617715;229;64921;-69
2022/01/04 05:55:19;;;;;;;;;;;;;;;24.34;68.41;96877.42;617695;229;62964;-69
2022/01/04 05:57:46;;;;;;;;;;;;;;;24.34;67.10;96882.79;617614;229;64870;-69
2022/01/04 06:00:14;;;;;;;;;;;;;;;24.33;68.15;96875.80;617689;229;65804;-70
2022/01/04 06:02:41;;;;;;;;;;;;;;;24.31;66.02;96878.02;617767;229;65066;-70
2022/01/04 06:05:10;;;;;;;;;;;;;;;24.32;66.85;96869.64;617685;229;66747;-70
2022/01/04 06:07:37;;;;;;;;;;;;;;;24.34;69.00;96877.42;617666;229;67127;-70
2022/01/04 06:10:07;;;;;;;;;;;;;;;24.35;68.22;96884.37;617663;229;64993;-70
2022/01/04 06:15:12;;;;;;;;;;;;;;;24.32;66.98;96885.76;617743;229;67079;-70
2022/01/04 06:17:42;;;;;;;;;;;;;;;24.34;68.16;96888.16;617695;229;64921;-70
2022/01/04 06:20:13;;;;;;;;;;;;;;;24.34;68.80;96893.53;617677;229;67234;-70
2022/01/04 06:22:41;;;;;;;;;;;;;;;24.35;69.25;96887.06;617671;229;67200;-70
2022/01/04 06:25:10;;;;;;;;;;;;;;;24.38;66.62;96894.52;617691;229;65115;-70
2022/01/04 06:27:38;;;;;;;;;;;;;;;24.38;68.73;96906.05;617703;229;65103;-69
2022/01/04 06:30:06;;;;;;;;;;;;;;;24.37;67.60;96915.22;617744;229;64890;-70
2022/01/04 06:32:34;;;;;;;;;;;;;;;24.38;67.51;96916.01;617710;229;65053;-70
2022/01/04 06:35:01;;;;;;;;;;;;;;;24.40;68.94;96921.09;617632;229;67260;-70
2022/01/04 06:37:29;;;;;;;;;;;;;;;24.38;67.83;96922.17;617707;229;67087;-70
2022/01/04 06:39:56;;;;;;;;;;;;;;;24.41;68.51;96915.41;617664;229;62808;-70
2022/01/04 06:42:24;;;;;;;;;;;;;;;24.42;69.53;96908.15;617738;229;65012;-70
2022/01/04 06:44:51;;;;;;;;;;;;;;;24.41;69.00;96907.36;617716;229;66834;-70
2022/01/04 06:47:19;;;;;;;;;;;;;;;24.43;68.04;96907.86;617647;229;63025;-70
2022/01/04 06:49:46;;;;;;;;;;;;;;;24.43;69.27;96909.76;617663;229;64669;-69
2022/01/04 06:52:13;;;;;;;;;;;;;;;24.44;69.02;96911.38;617703;229;64790;-70
2022/01/04 06:54:41;;;;;;;;;;;;;;;24.45;65.71;96905.72;617629;229;62900;-67
2022/01/04 06:57:08;;;;;;;;;;;;;;;24.46;68.70;96907.30;617699;229;67030;-66
2022/01/04 06:59:36;;;;;;;;;;;;;;;24.48;66.08;96904.33;617637;229;67296;-61
2022/01/04 07:02:03;;;;;;;;;;;;;;;24.51;67.60;96899.16;616958;229;65045;-72
2022/01/04 07:04:33;;;;;;;;;;;;;;;24.52;65.33;96900.73;617551;229;67036;-68
2022/01/04 07:07:00;;;;;;;;;;;;;;;24.54;63.52;96898.55;617727;229;65635;-70
2022/01/04 07:09:28;;;;;;;;;;;;;;;24.59;62.97;96895.78;617584;229;64651;-66
2022/01/04 07:11:57;;;;;;;;;;;;;;;24.63;64.80;96900.55;617662;229;67068;-68
2022/01/04 07:14:25;;;;;;;;;;;;;;;24.65;63.38;96901.86;617605;229;64833;-68
2022/01/04 07:16:52;;;;;;;;;;;;;;;24.67;65.18;96893.51;617567;229;62735;-67
2022/01/04 07:19:20;;;;;;;;;;;;;;;24.69;63.29;96893.98;617644;229;64036;-67
2022/01/04 07:21:47;;;;;;;;;;;;;;;24.72;64.03;96885.35;617646;229;67055;-66
2022/01/04 07:24:15;;;;;;;;;;;;;;;24.73;65.31;96890.41;617577;229;65029;-65
2022/01/04 07:26:42;;;;;;;;;;;;;;;24.80;62.67;96881.97;617632;229;67418;-68
2022/01/04 07:29:10;;;;;;;;;;;;;;;24.89;63.69;96874.79;624470;227;66840;-67
2022/01/04 07:31:37;;;;;;;;;;;;;;;24.90;63.66;96872.89;624711;227;64970;-68
2022/01/04 07:34:05;;;;;;;;;;;;;;;24.90;63.64;96872.89;624778;227;67022;-68
2022/01/04 07:36:32;;;;;;;;;;;;;;;24.91;64.53;96864.54;624724;227;66940;-67
2022/01/04 07:39:00;;;;;;;;;;;;;;;24.94;64.72;96861.25;624667;227;62670;-64
2022/01/04 07:41:29;;;;;;;;;;;;;;;24.95;64.94;96853.98;624752;227;64975;-69
2022/01/04 07:43:56;;;;;;;;;;;;;;;24.93;62.42;96856.16;624684;227;67025;-66
2022/01/04 07:46:25;;;;;;;;;;;;;;;25.21;61.35;96852.38;624720;227;64969;-65
2022/01/04 07:48:52;;;;;;;;;;;;;;;25.10;62.01;96853.67;624697;227;67194;-65
2022/01/04 07:51:20;;;;;;;;;;;;;;;25.11;63.55;96857.15;625092;226;67040;-64
2022/01/04 07:53:47;;;;;;;;;;;;;;;25.06;64.73;96857.25;625881;226;65021;-64
2022/01/04 07:56:15;;;;;;;;;;;;;;;25.06;64.97;96851.88;622051;226;68000;-65
2022/01/04 07:58:42;;;;;;;;;;;;;;;25.02;65.16;96849.79;618733;229;67047;-65
2022/01/04 08:01:10;;;;;;;;;;;;;;;25.05;64.51;96844.91;618706;229;64968;-64
2022/01/04 08:03:37;;;;;;;;;;;;;;;25.06;65.09;96844.59;618731;229;67220;-64
2022/01/04 08:06:05;;;;;;;;;;;;;;;25.07;64.71;96840.01;618753;229;66841;-64
2022/01/04 08:08:33;;;;;;;;;;;;;;;25.08;64.52;96826.28;618718;229;64990;-64
2022/01/04 08:11:00;;;;;;;;;;;;;;;25.09;65.43;96811.73;618690;229;66895;-67
2022/01/04 08:13:30;;;;;;;;;;;;;;;25.10;65.33;96825.95;618697;229;65134;-67
2022/01/04 08:15:57;;;;;;;;;;;;;;;25.12;65.25;96821.08;618705;229;63654;-65
2022/01/04 08:18:24;;;;;;;;;;;;;;;25.14;65.09;96821.58;618616;229;64846;-67
2022/01/04 08:20:56;;;;;;;;;;;;;;;25.15;65.06;96820.50;618570;229;64953;-67
2022/01/04 08:23:22;;;;;;;;;;;;;;;25.15;64.80;96818.61;618243;228;62582;-68
2022/01/04 08:25:49;;;;;;;;;;;;;;;25.16;64.34;96814.84;618765;229;67214;-68
2022/01/04 08:28:19;;;;;;;;;;;;;;;25.16;64.89;96811.36;618758;228;47010;-67
2022/01/04 08:30:46;;;;;;;;;;;;;;;25.17;64.77;96799.49;618700;229;65072;-68
2022/01/04 08:33:14;;;;;;;;;;;;;;;25.19;65.07;96798.09;618723;229;66893;-68
2022/01/04 08:35:42;;;;;;;;;;;;;;;25.20;64.36;96801.57;618665;229;67038;-67
2022/01/04 08:38:10;;;;;;;;;;;;;;;25.20;65.07;96796.19;618671;229;64860;-69
2022/01/04 08:40:38;;;;;;;;;;;;;;;25.24;65.03;96789.91;618662;229;67427;-68
2022/01/04 08:43:05;;;;;;;;;;;;;;;25.21;65.06;96792.42;618698;229;66943;-68
2022/01/04 08:45:34;;;;;;;;;;;;;;;25.24;65.08;96791.81;618691;229;65019;-68
2022/01/04 08:48:01;;;;;;;;;;;;;;;25.24;64.99;96781.05;618248;229;67260;-68
2022/01/04 08:50:29;;;;;;;;;;;;;;;25.24;63.96;96773.78;618190;229;67161;-67
2022/01/04 08:52:57;;;;;;;;;;;;;;;25.22;64.25;96767.90;618755;229;64912;-68
2022/01/04 08:55:26;;;;;;;;;;;;;;;25.24;63.99;96754.16;618569;228;67402;-67
2022/01/04 08:57:54;;;;;;;;;;;;;;;25.28;64.36;96759.72;618710;229;67017;-68
2022/01/04 09:00:21;;;;;;;;;;;;;;;25.27;64.26;96764.30;618746;229;65067;-68
2022/01/04 09:02:49;;;;;;;;;;;;;;;25.28;64.54;96754.34;618527;229;65111;-67
2022/01/04 09:05:16;;;;;;;;;;;;;;;25.29;65.23;96753.23;618683;229;65962;-63
2022/01/04 09:07:43;;;;;;;;;;;;;;;25.31;64.75;96746.45;618640;229;64828;-64
2022/01/04 09:10:11;;;;;;;;;;;;;;;25.33;64.03;96738.08;618671;229;67027;-63
2022/01/04 09:15:46;;;;;;;;;;;;;;;25.33;64.85;96728.11;618709;229;62790;-59
2022/01/04 09:20:48;;;;;;;;;;;;;;;25.34;64.07;96731.59;618774;229;66212;-60
2022/01/04 09:23:22;;;;;;;;;;;;;;;25.36;64.02;96730.19;618748;229;62707;-60
2022/01/04 09:25:46;;;;;;;;;;;;;;;25.38;63.96;96722.61;618562;228;67726;-60
2022/01/04 09:28:15;;;;;;;;;;;;;;;25.37;63.61;96718.34;618713;229;67113;-60
2022/01/04 09:30:44;;;;;;;;;;;;;;;25.39;63.14;96709.95;618564;229;62946;-59
2022/01/04 09:33:12;;;;;;;;;;;;;;;25.39;63.29;96708.05;618676;229;66989;-63
2022/01/04 09:35:41;;;;;;;;;;;;;;;25.40;63.27;96698.08;618743;229;66844;-63
2022/01/04 09:38:08;;;;;;;;;;;;;;;25.40;63.34;96690.83;618631;229;63040;-60
2022/01/04 09:40:38;;;;;;;;;;;;;;;25.42;62.88;96685.91;618561;228;47970;-60
2022/01/04 09:43:07;;;;;;;;;;;;;;;25.45;62.37;96684.50;618679;229;67133;-60
2022/01/04 09:45:35;;;;;;;;;;;;;;;25.42;61.94;96677.84;618675;227;64858;-60
2022/01/04 09:48:03;;;;;;;;;;;;;;;25.43;62.97;96665.21;618758;229;66912;-67
2022/01/04 09:50:32;;;;;;;;;;;;;;;25.44;62.92;96662.20;618585;229;67067;-68
2022/01/04 09:53:00;;;;;;;;;;;;;;;25.47;63.03;96656.19;617418;229;64872;-67
2022/01/04 09:55:28;;;;;;;;;;;;;;;25.48;62.67;96651.60;617578;229;65202;-67
2022/01/04 09:57:55;;;;;;;;;;;;;;;25.50;63.08;96637.85;617635;229;65076;-69
2022/01/04 10:00:23;;;;;;;;;;;;;;;25.50;62.78;96629.78;617610;229;62907;-70
2022/01/04 10:02:51;;;;;;;;;;;;;;;25.51;63.67;96655.57;617548;229;67064;-66
2022/01/04 10:05:23;;;;;;;;;;;;;;;25.49;62.54;96630.90;617567;229;67014;-66
2022/01/04 10:07:52;;;;;;;;;;;;;;;25.51;63.13;96620.59;617525;229;62896;-65
2022/01/04 10:10:21;;;;;;;;;;;;;;;25.55;62.04;96613.51;617403;228;67021;-66
2022/01/04 10:12:53;;;;;;;;;;;;;;;25.55;61.71;96608.13;617561;229;67130;-66
2022/01/04 10:15:31;;;;;;;;;;;;;;;25.54;61.57;96606.55;617619;229;65022;-65
2022/01/04 10:18:00;;;;;;;;;;;;;;;25.52;61.07;96597.98;617597;229;67226;-67
2022/01/04 10:20:27;;;;;;;;;;;;;;;25.51;60.63;96591.00;617632;229;64962;-65
2022/01/04 10:22:55;;;;;;;;;;;;;;;25.50;60.81;96589.43;617599;229;62770;-65
2022/01/04 10:25:22;;;;;;;;;;;;;;;25.53;61.20;96584.21;617646;229;67268;-64
2022/01/04 10:27:51;;;;;;;;;;;;;;;25.50;60.59;96579.45;617626;229;66903;-65
2022/01/04 10:30:24;;;;;;;;;;;;;;;25.50;60.81;96563.31;617633;229;65053;-66
2022/01/04 10:32:56;;;;;;;;;;;;;;;25.53;60.32;96567.28;617475;228;67075;-65
2022/01/04 10:35:34;;;;;;;;;;;;;;;25.54;60.08;96560.81;617614;229;64567;-67
2022/01/04 10:38:09;;;;;;;;;;;;;;;25.54;59.67;96553.53;617656;229;65113;-63
2022/01/04 10:40:37;;;;;;;;;;;;;;;25.55;60.83;96548.94;615268;229;64522;-64
2022/01/04 10:43:19;;;;;;;;;;;;;;;25.55;59.74;96533.58;617444;229;68200;-63
2022/01/04 10:45:47;;;;;;;;;;;;;;;25.57;59.96;96535.97;617670;229;65130;-62
2022/01/04 10:48:32;;;;;;;;;;;;;;;25.53;59.66;96522.33;617565;229;67091;-62
2022/01/04 10:51:00;;;;;;;;;;;;;;;25.56;59.50;96518.22;616924;228;64938;-63
2022/01/04 10:53:33;;;;;;;;;;;;;;;25.57;58.33;96517.92;617479;228;62807;-63
2022/01/04 10:56:02;;;;;;;;;;;;;;;25.55;58.37;96512.05;617694;229;66878;-63
2022/01/04 10:58:31;;;;;;;;;;;;;;;25.58;58.81;96516.80;617624;229;64760;-63
2022/01/04 11:01:01;;;;;;;;;;;;;;;25.57;59.12;96514.45;617662;229;65060;-65
2022/01/04 11:03:30;;;;;;;;;;;;;;;25.56;59.16;96512.84;617525;229;66868;-64
2022/01/04 11:05:59;;;;;;;;;;;;;;;25.59;58.97;96506.83;617603;229;65088;-65
2022/01/04 11:08:28;;;;;;;;;;;;;;;25.59;58.64;96506.83;617614;229;64847;-65
2022/01/04 11:10:55;;;;;;;;;;;;;;;25.61;59.14;96496.55;617577;229;67446;-65
2022/01/04 11:13:23;;;;;;;;;;;;;;;25.61;58.91;96504.63;617633;229;67264;-64
2022/01/04 11:15:52;;;;;;;;;;;;;;;25.62;59.12;96501.64;617662;229;65062;-64
2022/01/04 11:18:19;;;;;;;;;;;;;;;25.62;58.56;96503.55;617533;229;67141;-63
2022/01/04 11:20:47;;;;;;;;;;;;;;;25.63;58.36;96491.66;617610;229;64781;-64
2022/01/04 11:23:15;;;;;;;;;;;;;;;25.62;59.24;96493.56;617696;229;65080;-64
2022/01/04 11:25:45;;;;;;;;;;;;;;;25.61;58.75;96486.58;617593;229;64963;-63
2022/01/04 11:28:14;;;;;;;;;;;;;;;25.63;59.13;96475.52;617627;229;67179;-64
2022/01/04 11:31:01;;;;;;;;;;;;;;;25.65;58.86;96478.69;617589;229;62606;-65
2022/01/04 11:33:33;;;;;;;;;;;;;;;25.63;59.83;96475.52;617567;229;67347;-63
2022/01/04 11:36:01;;;;;;;;;;;;;;;25.65;59.30;96467.93;617387;228;66861;-65
2022/01/04 11:38:33;;;;;;;;;;;;;;;25.65;58.74;96465.23;617668;229;62872;-64
2022/01/04 11:41:01;;;;;;;;;;;;;;;25.65;58.46;96462.55;617576;229;67207;-64
2022/01/04 11:43:30;;;;;;;;;;;;;;;25.65;58.78;96465.23;617629;229;66717;-64
2022/01/04 11:45:57;;;;;;;;;;;;;;;25.67;58.68;96468.39;617629;229;62920;-64
2022/01/04 11:48:30;;;;;;;;;;;;;;;25.67;58.65;96465.69;617586;229;67255;-62
2022/01/04 11:50:59;;;;;;;;;;;;;;;25.68;58.88;96461.91;617564;229;66840;-64
2022/01/04 11:53:26;;;;;;;;;;;;;;;25.67;58.66;96457.63;617632;229;62955;-65
2022/01/04 11:56:00;;;;;;;;;;;;;;;25.65;58.82;96457.16;617552;229;64663;-64
2022/01/04 11:58:29;;;;;;;;;;;;;;;25.68;59.04;96456.53;617630;229;67354;-65
2022/01/04 12:01:00;;;;;;;;;;;;;;;25.67;58.63;96454.93;617225;228;64941;-65
2022/01/04 12:03:35;;;;;;;;;;;;;;;25.67;59.44;96455.75;617161;228;65340;-65
2022/01/04 12:06:05;;;;;;;;;;;;;;;25.69;59.29;96458.11;616901;228;48265;-65
2022/01/04 12:08:34;;;;;;;;;;;;;;;25.69;59.25;96450.03;614168;229;62772;-65
2022/01/04 12:11:01;;;;;;;;;;;;;;;25.69;59.33;96463.48;608489;229;66257;-64
2022/01/04 12:13:47;;;;;;;;;;;;;;;25.68;59.21;96456.53;617583;229;67019;-64
2022/01/04 12:16:16;;;;;;;;;;;;;;;25.67;58.95;96457.63;617561;229;64900;-64
2022/01/04 12:18:45;;;;;;;;;;;;;;;25.68;59.80;96451.94;614083;229;66929;-63
2022/01/04 12:21:15;;;;;;;;;;;;;;;25.71;58.63;96452.42;617652;229;67112;-63
2022/01/04 12:23:46;;;;;;;;;;;;;;;25.68;59.43;96457.32;617592;229;64872;-64
2022/01/04 12:26:15;;;;;;;;;;;;;;;25.70;58.67;96454.33;617667;229;67425;-63
2022/01/04 12:28:44;;;;;;;;;;;;;;;25.69;58.34;96437.36;617586;229;64493;-63
2022/01/04 12:31:13;;;;;;;;;;;;;;;25.69;58.48;96442.75;617536;229;66467;-63
2022/01/04 12:33:42;;;;;;;;;;;;;;;25.70;59.05;96448.95;617644;229;64895;-63
2022/01/04 12:36:10;;;;;;;;;;;;;;;25.69;58.95;96428.50;617626;229;67073;-63
2022/01/04 12:38:38;;;;;;;;;;;;;;;25.71;58.18;96439.75;617559;229;65058;-62
2022/01/04 12:41:05;;;;;;;;;;;;;;;25.71;58.96;96431.67;617532;229;67249;-65
2022/01/04 12:43:33;;;;;;;;;;;;;;;25.68;57.31;96430.41;617538;229;66990;-62
2022/01/04 12:46:02;;;;;;;;;;;;;;;25.82;55.82;96430.25;617623;229;66057;-59
2022/01/04 12:48:47;;;;;;;;;;;;;;;25.87;58.72;96424.75;617652;229;64917;-60
2022/01/04 12:51:27;;;;;;;;;;;;;;;25.79;60.13;96430.89;617959;229;66884;-63
2022/01/04 12:53:57;;;;;;;;;;;;;;;25.72;60.63;96429.77;618744;229;63788;-62
2022/01/04 12:56:25;;;;;;;;;;;;;;;25.67;61.07;96428.02;618625;229;67262;-62
2022/01/04 12:58:53;;;;;;;;;;;;;;;25.64;61.80;96421.37;618632;229;66993;-59
2022/01/04 13:01:24;;;;;;;;;;;;;;;25.62;61.78;96420.13;618716;229;62957;-65
2022/01/04 13:03:51;;;;;;;;;;;;;;;25.66;59.03;96423.75;618736;229;68125;-63